BIKF

Keflavik International Airport

Reykjavík, Iceland
METAR BIKF 240301Z 16019KT 9999 -RA FEW013 SCT020 BKN026 08/07 Q1012
Observed Flight Rules
Sep-24 @ 03:01 UTC (45 minutes ago) Marginal Visual Flight Rules
Wind Visibility Clouds Conditions
160° at 19 knots 10,000+ meters
  • Few at 1,300' AGL
  • Scattered at 2,000' AGL
  • Broken at 2,600' AGL
  • Light Rain
Temperatures Readings
Current 8°C / 46°F
Dewpoint 7°C / 45°F
Humidity 93%
Altimeter 29.88" Hg
Pressure 1012 hPa
Elevation 54
METAR BIKF 240301Z 16019KT 9999 -RA FEW013 SCT020 BKN026 08/07 Q1012
Observed Flight Rules
Sep-24 @ 03:01 UTC
(45 minutes ago)
MVFR
Wind Visibility
160° at 19 knots 10,000+ meters
Clouds
  • Few at 1,300' AGL
  • Scattered at 2,000' AGL
  • Broken at 2,600' AGL
Conditions
  • Light Rain
Temperature Dewpoint
8°C / 46°F 7°C / 45°F
Humidity Altimeter Pressure
93% 29.88" Hg 1012 hPa